sensor_id;sensor_type;location;lat;lon;timestamp;P1;durP1;ratioP1;P2;durP2;ratioP2
32491;SDS011;20605;49.742;18.802;2022-11-15T00:00:11;76.35;;;44.58;;
32491;SDS011;20605;49.742;18.802;2022-11-15T00:02:56;116.10;;;45.48;;
32491;SDS011;20605;49.742;18.802;2022-11-15T00:05:41;160.22;;;47.48;;
32491;SDS011;20605;49.742;18.802;2022-11-15T00:08:28;103.53;;;44.70;;
32491;SDS011;20605;49.742;18.802;2022-11-15T00:11:14;104.45;;;46.00;;
32491;SDS011;20605;49.742;18.802;2022-11-15T00:13:59;97.00;;;43.90;;
32491;SDS011;20605;49.742;18.802;2022-11-15T00:16:46;96.35;;;42.27;;
32491;SDS011;20605;49.742;18.802;2022-11-15T00:19:31;120.87;;;48.17;;
32491;SDS011;20605;49.742;18.802;2022-11-15T00:22:16;111.20;;;44.88;;
32491;SDS011;20605;49.742;18.802;2022-11-15T00:25:00;98.10;;;42.95;;
32491;SDS011;20605;49.742;18.802;2022-11-15T00:27:46;90.32;;;43.33;;
32491;SDS011;20605;49.742;18.802;2022-11-15T00:30:31;87.45;;;40.58;;
32491;SDS011;20605;49.742;18.802;2022-11-15T00:33:16;88.72;;;41.92;;
32491;SDS011;20605;49.742;18.802;2022-11-15T00:36:04;107.37;;;39.65;;
32491;SDS011;20605;49.742;18.802;2022-11-15T00:38:52;124.12;;;39.40;;
32491;SDS011;20605;49.742;18.802;2022-11-15T00:41:37;123.25;;;39.33;;
32491;SDS011;20605;49.742;18.802;2022-11-15T00:44:22;110.45;;;39.75;;
32491;SDS011;20605;49.742;18.802;2022-11-15T00:47:07;100.22;;;36.80;;
32491;SDS011;20605;49.742;18.802;2022-11-15T00:49:52;92.60;;;39.35;;
32491;SDS011;20605;49.742;18.802;2022-11-15T00:52:37;112.80;;;41.98;;
32491;SDS011;20605;49.742;18.802;2022-11-15T00:55:22;122.28;;;43.48;;
32491;SDS011;20605;49.742;18.802;2022-11-15T00:58:07;113.65;;;43.68;;
32491;SDS011;20605;49.742;18.802;2022-11-15T01:00:52;87.65;;;40.17;;
32491;SDS011;20605;49.742;18.802;2022-11-15T01:03:38;104.73;;;39.10;;
32491;SDS011;20605;49.742;18.802;2022-11-15T01:06:25;106.87;;;39.80;;
32491;SDS011;20605;49.742;18.802;2022-11-15T01:09:09;90.60;;;41.05;;
32491;SDS011;20605;49.742;18.802;2022-11-15T01:11:54;74.60;;;41.23;;
32491;SDS011;20605;49.742;18.802;2022-11-15T01:14:39;94.40;;;46.98;;
32491;SDS011;20605;49.742;18.802;2022-11-15T01:17:24;76.40;;;44.13;;
32491;SDS011;20605;49.742;18.802;2022-11-15T01:20:09;73.47;;;40.92;;
32491;SDS011;20605;49.742;18.802;2022-11-15T01:22:55;96.53;;;42.62;;
32491;SDS011;20605;49.742;18.802;2022-11-15T01:25:40;87.90;;;44.27;;
32491;SDS011;20605;49.742;18.802;2022-11-15T01:28:25;85.57;;;45.12;;
32491;SDS011;20605;49.742;18.802;2022-11-15T01:31:17;97.33;;;43.70;;
32491;SDS011;20605;49.742;18.802;2022-11-15T01:34:04;75.42;;;41.30;;
32491;SDS011;20605;49.742;18.802;2022-11-15T01:36:49;72.85;;;43.15;;
32491;SDS011;20605;49.742;18.802;2022-11-15T01:39:34;73.22;;;45.67;;
32491;SDS011;20605;49.742;18.802;2022-11-15T01:42:20;77.25;;;45.38;;
32491;SDS011;20605;49.742;18.802;2022-11-15T01:45:05;101.20;;;57.27;;
32491;SDS011;20605;49.742;18.802;2022-11-15T01:47:54;123.30;;;64.85;;
32491;SDS011;20605;49.742;18.802;2022-11-15T01:50:39;86.50;;;48.65;;
32491;SDS011;20605;49.742;18.802;2022-11-15T01:53:24;78.07;;;47.88;;
32491;SDS011;20605;49.742;18.802;2022-11-15T01:56:11;75.30;;;47.05;;
32491;SDS011;20605;49.742;18.802;2022-11-15T01:59:03;71.62;;;44.73;;
32491;SDS011;20605;49.742;18.802;2022-11-15T02:01:50;77.53;;;48.35;;
32491;SDS011;20605;49.742;18.802;2022-11-15T02:04:37;66.17;;;42.13;;
32491;SDS011;20605;49.742;18.802;2022-11-15T02:07:28;68.65;;;44.55;;
32491;SDS011;20605;49.742;18.802;2022-11-15T02:10:20;70.30;;;44.88;;
32491;SDS011;20605;49.742;18.802;2022-11-15T02:13:07;66.33;;;45.33;;
32491;SDS011;20605;49.742;18.802;2022-11-15T02:16:01;59.33;;;41.00;;
32491;SDS011;20605;49.742;18.802;2022-11-15T02:22:02;64.05;;;42.17;;
32491;SDS011;20605;49.742;18.802;2022-11-15T02:27:42;64.40;;;43.25;;
32491;SDS011;20605;49.742;18.802;2022-11-15T02:30:44;62.33;;;43.60;;
32491;SDS011;20605;49.742;18.802;2022-11-15T02:33:41;60.63;;;41.28;;
32491;SDS011;20605;49.742;18.802;2022-11-15T02:36:54;75.57;;;47.15;;
32491;SDS011;20605;49.742;18.802;2022-11-15T02:40:04;75.00;;;50.83;;
32491;SDS011;20605;49.742;18.802;2022-11-15T02:42:57;90.20;;;60.23;;
32491;SDS011;20605;49.742;18.802;2022-11-15T02:46:09;78.30;;;49.42;;
32491;SDS011;20605;49.742;18.802;2022-11-15T02:49:00;69.87;;;46.30;;
32491;SDS011;20605;49.742;18.802;2022-11-15T02:51:45;84.05;;;54.53;;
32491;SDS011;20605;49.742;18.802;2022-11-15T02:54:33;69.70;;;45.33;;
32491;SDS011;20605;49.742;18.802;2022-11-15T02:57:18;63.95;;;44.08;;
32491;SDS011;20605;49.742;18.802;2022-11-15T03:00:25;64.03;;;42.65;;
32491;SDS011;20605;49.742;18.802;2022-11-15T03:06:35;62.80;;;41.33;;
32491;SDS011;20605;49.742;18.802;2022-11-15T03:09:42;61.80;;;41.35;;
32491;SDS011;20605;49.742;18.802;2022-11-15T03:12:42;63.00;;;40.83;;
32491;SDS011;20605;49.742;18.802;2022-11-15T03:18:57;59.75;;;39.63;;
32491;SDS011;20605;49.742;18.802;2022-11-15T03:21:59;55.78;;;39.18;;
32491;SDS011;20605;49.742;18.802;2022-11-15T03:24:50;58.50;;;40.45;;
32491;SDS011;20605;49.742;18.802;2022-11-15T03:27:40;62.73;;;40.90;;
32491;SDS011;20605;49.742;18.802;2022-11-15T03:30:28;57.25;;;39.27;;
32491;SDS011;20605;49.742;18.802;2022-11-15T03:33:16;52.65;;;36.00;;
32491;SDS011;20605;49.742;18.802;2022-11-15T03:36:03;56.88;;;37.98;;
32491;SDS011;20605;49.742;18.802;2022-11-15T03:38:49;48.70;;;32.98;;
32491;SDS011;20605;49.742;18.802;2022-11-15T03:41:39;36.40;;;24.95;;
32491;SDS011;20605;49.742;18.802;2022-11-15T03:44:40;17.32;;;13.18;;
32491;SDS011;20605;49.742;18.802;2022-11-15T03:47:38;13.78;;;10.40;;
32491;SDS011;20605;49.742;18.802;2022-11-15T03:50:27;11.20;;;8.90;;
32491;SDS011;20605;49.742;18.802;2022-11-15T03:53:13;13.75;;;8.80;;
32491;SDS011;20605;49.742;18.802;2022-11-15T03:55:58;11.20;;;7.97;;
32491;SDS011;20605;49.742;18.802;2022-11-15T03:58:44;10.25;;;7.42;;
32491;SDS011;20605;49.742;18.802;2022-11-15T04:01:29;7.70;;;6.40;;
32491;SDS011;20605;49.742;18.802;2022-11-15T04:04:14;9.45;;;8.40;;
32491;SDS011;20605;49.742;18.802;2022-11-15T04:06:58;8.85;;;7.47;;
32491;SDS011;20605;49.742;18.802;2022-11-15T04:09:43;8.13;;;6.45;;
32491;SDS011;20605;49.742;18.802;2022-11-15T04:12:47;7.03;;;6.33;;
32491;SDS011;20605;49.742;18.802;2022-11-15T04:15:32;7.80;;;6.28;;
32491;SDS011;20605;49.742;18.802;2022-11-15T04:18:17;8.48;;;6.67;;
32491;SDS011;20605;49.742;18.802;2022-11-15T04:21:02;10.45;;;7.20;;
32491;SDS011;20605;49.742;18.802;2022-11-15T04:24:06;10.63;;;7.97;;
32491;SDS011;20605;49.742;18.802;2022-11-15T04:26:56;11.10;;;7.53;;
32491;SDS011;20605;49.742;18.802;2022-11-15T04:29:41;34.43;;;14.68;;
32491;SDS011;20605;49.742;18.802;2022-11-15T04:32:26;12.23;;;7.75;;
32491;SDS011;20605;49.742;18.802;2022-11-15T04:35:11;7.97;;;7.05;;
32491;SDS011;20605;49.742;18.802;2022-11-15T04:37:56;9.78;;;7.53;;
32491;SDS011;20605;49.742;18.802;2022-11-15T04:40:42;7.40;;;6.37;;
32491;SDS011;20605;49.742;18.802;2022-11-15T04:43:27;8.18;;;6.50;;
32491;SDS011;20605;49.742;18.802;2022-11-15T04:48:57;56.05;;;18.27;;
32491;SDS011;20605;49.742;18.802;2022-11-15T04:51:42;12.75;;;7.37;;
32491;SDS011;20605;49.742;18.802;2022-11-15T04:54:27;10.72;;;8.35;;
32491;SDS011;20605;49.742;18.802;2022-11-15T04:57:12;7.60;;;6.45;;
32491;SDS011;20605;49.742;18.802;2022-11-15T04:59:58;25.80;;;11.43;;
32491;SDS011;20605;49.742;18.802;2022-11-15T05:02:43;41.53;;;15.53;;
32491;SDS011;20605;49.742;18.802;2022-11-15T05:05:46;16.37;;;9.08;;
32491;SDS011;20605;49.742;18.802;2022-11-15T05:08:31;42.05;;;14.93;;
32491;SDS011;20605;49.742;18.802;2022-11-15T05:11:16;51.80;;;18.10;;
32491;SDS011;20605;49.742;18.802;2022-11-15T05:14:01;26.20;;;11.03;;
32491;SDS011;20605;49.742;18.802;2022-11-15T05:16:46;26.33;;;12.00;;
32491;SDS011;20605;49.742;18.802;2022-11-15T05:19:31;61.33;;;22.77;;
32491;SDS011;20605;49.742;18.802;2022-11-15T05:22:17;38.70;;;15.03;;
32491;SDS011;20605;49.742;18.802;2022-11-15T05:27:47;37.73;;;28.20;;
32491;SDS011;20605;49.742;18.802;2022-11-15T05:30:32;35.35;;;26.80;;
32491;SDS011;20605;49.742;18.802;2022-11-15T05:33:17;37.35;;;28.55;;
32491;SDS011;20605;49.742;18.802;2022-11-15T05:36:07;51.53;;;35.55;;
32491;SDS011;20605;49.742;18.802;2022-11-15T05:38:53;56.60;;;36.85;;
32491;SDS011;20605;49.742;18.802;2022-11-15T05:44:28;52.67;;;36.38;;
32491;SDS011;20605;49.742;18.802;2022-11-15T05:47:22;97.15;;;50.58;;
32491;SDS011;20605;49.742;18.802;2022-11-15T05:50:11;83.65;;;46.18;;
32491;SDS011;20605;49.742;18.802;2022-11-15T05:52:58;54.13;;;35.60;;
32491;SDS011;20605;49.742;18.802;2022-11-15T05:55:45;59.35;;;36.70;;
32491;SDS011;20605;49.742;18.802;2022-11-15T05:58:31;66.23;;;41.53;;
32491;SDS011;20605;49.742;18.802;2022-11-15T06:01:17;68.80;;;41.25;;
32491;SDS011;20605;49.742;18.802;2022-11-15T06:04:02;65.67;;;42.98;;
32491;SDS011;20605;49.742;18.802;2022-11-15T06:06:47;66.28;;;42.85;;
32491;SDS011;20605;49.742;18.802;2022-11-15T06:09:32;71.12;;;46.13;;
32491;SDS011;20605;49.742;18.802;2022-11-15T06:12:17;62.23;;;39.80;;
32491;SDS011;20605;49.742;18.802;2022-11-15T06:15:02;73.17;;;47.55;;
32491;SDS011;20605;49.742;18.802;2022-11-15T06:17:48;72.40;;;45.33;;
32491;SDS011;20605;49.742;18.802;2022-11-15T06:20:32;73.05;;;45.95;;
32491;SDS011;20605;49.742;18.802;2022-11-15T06:23:17;68.70;;;43.60;;
32491;SDS011;20605;49.742;18.802;2022-11-15T06:26:03;60.38;;;40.63;;
32491;SDS011;20605;49.742;18.802;2022-11-15T06:28:47;59.42;;;38.75;;
32491;SDS011;20605;49.742;18.802;2022-11-15T06:31:33;67.12;;;43.28;;
32491;SDS011;20605;49.742;18.802;2022-11-15T06:37:03;63.52;;;39.48;;
32491;SDS011;20605;49.742;18.802;2022-11-15T06:39:47;71.47;;;44.27;;
32491;SDS011;20605;49.742;18.802;2022-11-15T06:42:33;61.37;;;39.98;;
32491;SDS011;20605;49.742;18.802;2022-11-15T06:45:18;66.97;;;43.75;;
32491;SDS011;20605;49.742;18.802;2022-11-15T06:48:03;66.37;;;43.52;;
32491;SDS011;20605;49.742;18.802;2022-11-15T06:50:57;64.95;;;42.48;;
32491;SDS011;20605;49.742;18.802;2022-11-15T06:53:39;62.70;;;44.95;;
32491;SDS011;20605;49.742;18.802;2022-11-15T06:56:24;62.62;;;42.80;;
32491;SDS011;20605;49.742;18.802;2022-11-15T06:59:09;63.52;;;43.02;;
32491;SDS011;20605;49.742;18.802;2022-11-15T07:01:54;66.67;;;45.40;;
32491;SDS011;20605;49.742;18.802;2022-11-15T07:04:39;65.37;;;46.70;;
32491;SDS011;20605;49.742;18.802;2022-11-15T07:07:24;48.23;;;38.85;;
32491;SDS011;20605;49.742;18.802;2022-11-15T07:10:09;38.73;;;32.88;;
32491;SDS011;20605;49.742;18.802;2022-11-15T07:12:54;40.83;;;36.17;;
32491;SDS011;20605;49.742;18.802;2022-11-15T07:15:42;113.62;;;100.47;;
32491;SDS011;20605;49.742;18.802;2022-11-15T07:18:26;61.50;;;53.13;;
32491;SDS011;20605;49.742;18.802;2022-11-15T07:21:12;82.35;;;73.30;;
32491;SDS011;20605;49.742;18.802;2022-11-15T07:23:56;63.87;;;57.25;;
32491;SDS011;20605;49.742;18.802;2022-11-15T07:26:42;40.20;;;35.83;;
32491;SDS011;20605;49.742;18.802;2022-11-15T07:29:26;29.87;;;26.83;;
32491;SDS011;20605;49.742;18.802;2022-11-15T07:32:11;28.55;;;25.60;;
32491;SDS011;20605;49.742;18.802;2022-11-15T07:34:56;28.20;;;25.30;;
32491;SDS011;20605;49.742;18.802;2022-11-15T07:37:41;28.83;;;26.13;;
32491;SDS011;20605;49.742;18.802;2022-11-15T07:40:27;40.52;;;36.50;;
32491;SDS011;20605;49.742;18.802;2022-11-15T07:43:13;31.33;;;28.20;;
32491;SDS011;20605;49.742;18.802;2022-11-15T07:45:58;29.35;;;26.48;;
32491;SDS011;20605;49.742;18.802;2022-11-15T07:48:52;27.27;;;24.37;;
32491;SDS011;20605;49.742;18.802;2022-11-15T07:54:22;26.53;;;23.70;;
32491;SDS011;20605;49.742;18.802;2022-11-15T07:59:53;23.15;;;20.60;;
32491;SDS011;20605;49.742;18.802;2022-11-15T08:02:38;23.98;;;21.87;;
32491;SDS011;20605;49.742;18.802;2022-11-15T08:05:22;20.25;;;18.52;;
32491;SDS011;20605;49.742;18.802;2022-11-15T08:08:08;22.50;;;20.40;;
32491;SDS011;20605;49.742;18.802;2022-11-15T08:10:54;31.05;;;27.67;;
32491;SDS011;20605;49.742;18.802;2022-11-15T08:13:44;20.85;;;19.02;;
32491;SDS011;20605;49.742;18.802;2022-11-15T08:16:29;21.07;;;19.37;;
32491;SDS011;20605;49.742;18.802;2022-11-15T08:19:14;21.00;;;19.20;;
32491;SDS011;20605;49.742;18.802;2022-11-15T08:24:46;22.43;;;20.30;;
32491;SDS011;20605;49.742;18.802;2022-11-15T08:27:39;26.55;;;23.75;;
32491;SDS011;20605;49.742;18.802;2022-11-15T08:30:25;26.73;;;24.00;;
32491;SDS011;20605;49.742;18.802;2022-11-15T08:33:11;27.40;;;24.50;;
32491;SDS011;20605;49.742;18.802;2022-11-15T08:35:58;29.90;;;24.67;;
32491;SDS011;20605;49.742;18.802;2022-11-15T08:38:44;32.03;;;27.35;;
32491;SDS011;20605;49.742;18.802;2022-11-15T08:41:36;29.67;;;25.60;;
32491;SDS011;20605;49.742;18.802;2022-11-15T08:44:21;33.58;;;28.85;;
32491;SDS011;20605;49.742;18.802;2022-11-15T08:47:07;84.37;;;72.95;;
32491;SDS011;20605;49.742;18.802;2022-11-15T08:49:57;73.02;;;63.00;;
32491;SDS011;20605;49.742;18.802;2022-11-15T08:52:42;49.45;;;44.03;;
32491;SDS011;20605;49.742;18.802;2022-11-15T08:55:27;29.92;;;25.97;;
32491;SDS011;20605;49.742;18.802;2022-11-15T08:58:12;443.15;;;394.73;;
32491;SDS011;20605;49.742;18.802;2022-11-15T09:00:57;498.25;;;388.75;;
32491;SDS011;20605;49.742;18.802;2022-11-15T09:03:42;349.80;;;283.68;;
32491;SDS011;20605;49.742;18.802;2022-11-15T09:06:27;78.57;;;59.42;;
32491;SDS011;20605;49.742;18.802;2022-11-15T09:09:12;83.30;;;63.90;;
32491;SDS011;20605;49.742;18.802;2022-11-15T09:11:57;86.05;;;76.67;;
32491;SDS011;20605;49.742;18.802;2022-11-15T09:14:42;58.92;;;49.98;;
32491;SDS011;20605;49.742;18.802;2022-11-15T09:17:27;108.00;;;87.60;;
32491;SDS011;20605;49.742;18.802;2022-11-15T09:20:12;96.35;;;78.85;;
32491;SDS011;20605;49.742;18.802;2022-11-15T09:23:00;46.35;;;37.23;;
32491;SDS011;20605;49.742;18.802;2022-11-15T09:25:46;40.10;;;31.82;;
32491;SDS011;20605;49.742;18.802;2022-11-15T09:28:32;39.35;;;30.80;;
32491;SDS011;20605;49.742;18.802;2022-11-15T09:31:17;40.15;;;32.17;;
32491;SDS011;20605;49.742;18.802;2022-11-15T09:34:03;43.50;;;34.33;;
32491;SDS011;20605;49.742;18.802;2022-11-15T09:36:48;41.33;;;30.85;;
32491;SDS011;20605;49.742;18.802;2022-11-15T09:39:33;38.85;;;29.85;;
32491;SDS011;20605;49.742;18.802;2022-11-15T09:42:31;41.65;;;29.12;;
32491;SDS011;20605;49.742;18.802;2022-11-15T09:45:47;37.00;;;28.47;;
32491;SDS011;20605;49.742;18.802;2022-11-15T09:49:00;42.98;;;31.73;;
32491;SDS011;20605;49.742;18.802;2022-11-15T09:51:34;39.23;;;30.97;;
32491;SDS011;20605;49.742;18.802;2022-11-15T09:54:18;37.98;;;28.42;;
32491;SDS011;20605;49.742;18.802;2022-11-15T10:05:14;35.48;;;26.75;;
32491;SDS011;20605;49.742;18.802;2022-11-15T10:13:12;40.77;;;30.53;;
32491;SDS011;20605;49.742;18.802;2022-11-15T10:15:42;36.30;;;26.60;;
32491;SDS011;20605;49.742;18.802;2022-11-15T10:18:19;33.08;;;25.37;;
32491;SDS011;20605;49.742;18.802;2022-11-15T10:21:15;31.12;;;25.88;;
32491;SDS011;20605;49.742;18.802;2022-11-15T10:23:48;32.83;;;25.72;;
32491;SDS011;20605;49.742;18.802;2022-11-15T10:26:15;31.40;;;26.00;;
32491;SDS011;20605;49.742;18.802;2022-11-15T10:28:43;41.15;;;31.30;;
32491;SDS011;20605;49.742;18.802;2022-11-15T10:31:23;43.35;;;36.03;;
32491;SDS011;20605;49.742;18.802;2022-11-15T10:34:05;41.77;;;33.08;;
32491;SDS011;20605;49.742;18.802;2022-11-15T10:36:34;42.53;;;33.90;;
32491;SDS011;20605;49.742;18.802;2022-11-15T10:39:01;37.95;;;31.97;;
32491;SDS011;20605;49.742;18.802;2022-11-15T10:41:34;37.23;;;30.43;;
32491;SDS011;20605;49.742;18.802;2022-11-15T10:49:29;29.67;;;23.07;;
32491;SDS011;20605;49.742;18.802;2022-11-15T10:52:00;29.18;;;23.77;;
32491;SDS011;20605;49.742;18.802;2022-11-15T10:54:46;29.27;;;24.63;;
32491;SDS011;20605;49.742;18.802;2022-11-15T10:57:36;32.65;;;26.93;;
32491;SDS011;20605;49.742;18.802;2022-11-15T11:00:06;37.17;;;28.20;;
32491;SDS011;20605;49.742;18.802;2022-11-15T11:05:36;37.80;;;27.95;;
32491;SDS011;20605;49.742;18.802;2022-11-15T11:10:54;44.83;;;33.45;;
32491;SDS011;20605;49.742;18.802;2022-11-15T11:13:27;46.68;;;36.10;;
32491;SDS011;20605;49.742;18.802;2022-11-15T11:33:41;38.98;;;28.83;;
32491;SDS011;20605;49.742;18.802;2022-11-15T11:36:13;37.57;;;29.07;;
32491;SDS011;20605;49.742;18.802;2022-11-15T11:41:58;38.50;;;30.52;;
32491;SDS011;20605;49.742;18.802;2022-11-15T11:47:23;38.67;;;30.52;;
32491;SDS011;20605;49.742;18.802;2022-11-15T11:50:00;33.98;;;27.35;;
32491;SDS011;20605;49.742;18.802;2022-11-15T11:58:19;43.87;;;29.52;;
32491;SDS011;20605;49.742;18.802;2022-11-15T12:01:23;35.80;;;27.00;;
32491;SDS011;20605;49.742;18.802;2022-11-15T12:04:01;38.92;;;28.10;;
32491;SDS011;20605;49.742;18.802;2022-11-15T12:12:05;34.73;;;27.55;;
32491;SDS011;20605;49.742;18.802;2022-11-15T12:14:42;40.90;;;32.95;;
32491;SDS011;20605;49.742;18.802;2022-11-15T12:17:21;42.50;;;29.15;;
32491;SDS011;20605;49.742;18.802;2022-11-15T12:19:51;38.35;;;30.17;;
32491;SDS011;20605;49.742;18.802;2022-11-15T12:22:23;42.35;;;30.77;;
32491;SDS011;20605;49.742;18.802;2022-11-15T12:28:12;42.13;;;31.40;;
32491;SDS011;20605;49.742;18.802;2022-11-15T12:30:51;41.02;;;30.88;;
32491;SDS011;20605;49.742;18.802;2022-11-15T12:36:09;34.40;;;27.67;;
32491;SDS011;20605;49.742;18.802;2022-11-15T12:41:35;40.65;;;29.55;;
32491;SDS011;20605;49.742;18.802;2022-11-15T12:44:10;43.58;;;31.12;;
32491;SDS011;20605;49.742;18.802;2022-11-15T12:57:33;40.05;;;31.52;;
32491;SDS011;20605;49.742;18.802;2022-11-15T13:13:01;86.82;;;56.35;;
32491;SDS011;20605;49.742;18.802;2022-11-15T13:18:26;72.55;;;53.40;;
32491;SDS011;20605;49.742;18.802;2022-11-15T13:20:57;71.63;;;54.20;;
32491;SDS011;20605;49.742;18.802;2022-11-15T13:23:24;63.50;;;48.98;;
32491;SDS011;20605;49.742;18.802;2022-11-15T13:26:03;51.65;;;38.73;;
32491;SDS011;20605;49.742;18.802;2022-11-15T13:34:16;54.23;;;38.90;;
32491;SDS011;20605;49.742;18.802;2022-11-15T13:36:58;54.20;;;40.73;;
32491;SDS011;20605;49.742;18.802;2022-11-15T13:39:28;56.92;;;40.35;;
32491;SDS011;20605;49.742;18.802;2022-11-15T13:41:57;53.10;;;37.93;;
32491;SDS011;20605;49.742;18.802;2022-11-15T13:44:28;53.63;;;40.50;;
32491;SDS011;20605;49.742;18.802;2022-11-15T13:49:40;49.08;;;36.40;;
32491;SDS011;20605;49.742;18.802;2022-11-15T13:52:10;48.83;;;34.15;;
32491;SDS011;20605;49.742;18.802;2022-11-15T14:03:21;56.15;;;41.02;;
32491;SDS011;20605;49.742;18.802;2022-11-15T14:06:04;72.67;;;53.80;;
32491;SDS011;20605;49.742;18.802;2022-11-15T14:08:58;61.35;;;45.63;;
32491;SDS011;20605;49.742;18.802;2022-11-15T14:11:28;50.17;;;37.23;;
32491;SDS011;20605;49.742;18.802;2022-11-15T14:14:13;48.90;;;34.05;;
32491;SDS011;20605;49.742;18.802;2022-11-15T14:16:45;51.83;;;39.25;;
32491;SDS011;20605;49.742;18.802;2022-11-15T14:28:30;50.63;;;35.65;;
32491;SDS011;20605;49.742;18.802;2022-11-15T14:30:39;48.80;;;34.58;;
32491;SDS011;20605;49.742;18.802;2022-11-15T14:33:40;46.08;;;35.25;;
32491;SDS011;20605;49.742;18.802;2022-11-15T14:35:48;51.10;;;35.28;;
32491;SDS011;20605;49.742;18.802;2022-11-15T14:38:18;49.58;;;34.05;;
32491;SDS011;20605;49.742;18.802;2022-11-15T14:40:45;49.50;;;34.05;;
32491;SDS011;20605;49.742;18.802;2022-11-15T14:43:12;48.20;;;34.80;;
32491;SDS011;20605;49.742;18.802;2022-11-15T14:45:40;53.15;;;36.58;;
32491;SDS011;20605;49.742;18.802;2022-11-15T14:48:07;52.53;;;39.30;;
32491;SDS011;20605;49.742;18.802;2022-11-15T14:50:34;56.80;;;40.30;;
32491;SDS011;20605;49.742;18.802;2022-11-15T14:53:02;60.52;;;42.83;;
32491;SDS011;20605;49.742;18.802;2022-11-15T14:55:30;68.22;;;44.27;;
32491;SDS011;20605;49.742;18.802;2022-11-15T14:58:04;62.60;;;43.95;;
32491;SDS011;20605;49.742;18.802;2022-11-15T15:00:34;63.17;;;44.50;;
32491;SDS011;20605;49.742;18.802;2022-11-15T15:03:03;108.72;;;58.28;;
32491;SDS011;20605;49.742;18.802;2022-11-15T15:08:05;80.00;;;49.98;;
32491;SDS011;20605;49.742;18.802;2022-11-15T15:10:33;99.92;;;62.08;;
32491;SDS011;20605;49.742;18.802;2022-11-15T15:13:04;86.32;;;57.67;;
32491;SDS011;20605;49.742;18.802;2022-11-15T15:15:33;208.63;;;104.75;;
32491;SDS011;20605;49.742;18.802;2022-11-15T15:18:02;208.47;;;114.45;;
32491;SDS011;20605;49.742;18.802;2022-11-15T15:20:31;148.85;;;86.92;;
32491;SDS011;20605;49.742;18.802;2022-11-15T15:22:58;121.33;;;75.87;;
32491;SDS011;20605;49.742;18.802;2022-11-15T15:25:30;110.40;;;70.55;;
32491;SDS011;20605;49.742;18.802;2022-11-15T15:28:00;110.22;;;71.70;;
32491;SDS011;20605;49.742;18.802;2022-11-15T15:30:28;145.00;;;85.85;;
32491;SDS011;20605;49.742;18.802;2022-11-15T15:32:55;156.28;;;92.53;;
32491;SDS011;20605;49.742;18.802;2022-11-15T15:35:22;167.87;;;98.40;;
32491;SDS011;20605;49.742;18.802;2022-11-15T15:37:53;165.77;;;94.55;;
32491;SDS011;20605;49.742;18.802;2022-11-15T15:40:20;152.60;;;85.75;;
32491;SDS011;20605;49.742;18.802;2022-11-15T15:42:49;90.07;;;57.90;;
32491;SDS011;20605;49.742;18.802;2022-11-15T15:45:16;77.75;;;50.40;;
32491;SDS011;20605;49.742;18.802;2022-11-15T15:47:45;99.65;;;69.47;;
32491;SDS011;20605;49.742;18.802;2022-11-15T15:50:22;147.98;;;86.47;;
32491;SDS011;20605;49.742;18.802;2022-11-15T15:52:53;120.33;;;70.08;;
32491;SDS011;20605;49.742;18.802;2022-11-15T15:55:22;126.80;;;76.97;;
32491;SDS011;20605;49.742;18.802;2022-11-15T15:57:50;180.52;;;123.22;;
32491;SDS011;20605;49.742;18.802;2022-11-15T16:00:17;126.33;;;82.53;;
32491;SDS011;20605;49.742;18.802;2022-11-15T16:02:46;130.50;;;81.95;;
32491;SDS011;20605;49.742;18.802;2022-11-15T16:05:12;120.80;;;81.05;;
32491;SDS011;20605;49.742;18.802;2022-11-15T16:07:39;137.12;;;86.90;;
32491;SDS011;20605;49.742;18.802;2022-11-15T16:12:43;238.25;;;144.00;;
32491;SDS011;20605;49.742;18.802;2022-11-15T16:15:10;194.25;;;124.85;;
32491;SDS011;20605;49.742;18.802;2022-11-15T16:17:42;208.45;;;131.47;;
32491;SDS011;20605;49.742;18.802;2022-11-15T16:20:15;169.75;;;108.90;;
32491;SDS011;20605;49.742;18.802;2022-11-15T16:23:00;162.30;;;103.35;;
32491;SDS011;20605;49.742;18.802;2022-11-15T16:25:30;178.97;;;117.67;;
32491;SDS011;20605;49.742;18.802;2022-11-15T16:28:01;175.05;;;121.13;;
32491;SDS011;20605;49.742;18.802;2022-11-15T16:30:28;126.07;;;89.60;;
32491;SDS011;20605;49.742;18.802;2022-11-15T16:32:55;118.97;;;88.15;;
32491;SDS011;20605;49.742;18.802;2022-11-15T16:35:21;90.03;;;65.75;;
32491;SDS011;20605;49.742;18.802;2022-11-15T16:37:48;102.42;;;75.12;;
32491;SDS011;20605;49.742;18.802;2022-11-15T16:42:58;186.60;;;121.05;;
32491;SDS011;20605;49.742;18.802;2022-11-15T16:45:27;230.25;;;148.20;;
32491;SDS011;20605;49.742;18.802;2022-11-15T16:47:54;179.42;;;116.70;;
32491;SDS011;20605;49.742;18.802;2022-11-15T16:50:23;197.87;;;137.60;;
32491;SDS011;20605;49.742;18.802;2022-11-15T16:52:53;155.43;;;112.55;;
32491;SDS011;20605;49.742;18.802;2022-11-15T16:55:22;168.93;;;114.85;;
32491;SDS011;20605;49.742;18.802;2022-11-15T16:57:52;179.57;;;122.90;;
32491;SDS011;20605;49.742;18.802;2022-11-15T17:00:26;175.45;;;119.02;;
32491;SDS011;20605;49.742;18.802;2022-11-15T17:02:53;182.05;;;122.37;;
32491;SDS011;20605;49.742;18.802;2022-11-15T17:05:21;195.30;;;135.10;;
32491;SDS011;20605;49.742;18.802;2022-11-15T17:07:49;191.30;;;130.60;;
32491;SDS011;20605;49.742;18.802;2022-11-15T17:10:19;201.88;;;139.00;;
32491;SDS011;20605;49.742;18.802;2022-11-15T17:12:48;181.35;;;122.85;;
32491;SDS011;20605;49.742;18.802;2022-11-15T17:15:16;179.27;;;121.70;;
32491;SDS011;20605;49.742;18.802;2022-11-15T17:17:44;190.62;;;129.12;;
32491;SDS011;20605;49.742;18.802;2022-11-15T17:20:19;194.17;;;122.78;;
32491;SDS011;20605;49.742;18.802;2022-11-15T17:22:48;197.72;;;125.60;;
32491;SDS011;20605;49.742;18.802;2022-11-15T17:25:15;233.35;;;140.70;;
32491;SDS011;20605;49.742;18.802;2022-11-15T17:27:42;237.05;;;148.60;;
32491;SDS011;20605;49.742;18.802;2022-11-15T17:30:09;241.40;;;153.30;;
32491;SDS011;20605;49.742;18.802;2022-11-15T17:32:41;227.32;;;147.82;;
32491;SDS011;20605;49.742;18.802;2022-11-15T17:35:08;208.70;;;133.75;;
32491;SDS011;20605;49.742;18.802;2022-11-15T17:37:38;244.37;;;153.50;;
32491;SDS011;20605;49.742;18.802;2022-11-15T17:40:05;246.55;;;151.15;;
32491;SDS011;20605;49.742;18.802;2022-11-15T17:42:33;262.93;;;162.75;;
32491;SDS011;20605;49.742;18.802;2022-11-15T17:44:59;220.50;;;136.00;;
32491;SDS011;20605;49.742;18.802;2022-11-15T17:47:26;193.62;;;124.87;;
32491;SDS011;20605;49.742;18.802;2022-11-15T17:49:53;192.32;;;122.78;;
32491;SDS011;20605;49.742;18.802;2022-11-15T17:52:19;194.80;;;121.62;;
32491;SDS011;20605;49.742;18.802;2022-11-15T17:54:46;148.22;;;97.05;;
32491;SDS011;20605;49.742;18.802;2022-11-15T17:57:13;144.15;;;95.67;;
32491;SDS011;20605;49.742;18.802;2022-11-15T17:59:40;140.10;;;92.40;;
32491;SDS011;20605;49.742;18.802;2022-11-15T18:02:08;145.02;;;94.62;;
32491;SDS011;20605;49.742;18.802;2022-11-15T18:04:35;149.05;;;102.60;;